createdAt,value
2017-09-24T00:00:55.537Z,12.06
2017-09-24T00:01:56.264Z,12.06
2017-09-24T00:02:57.006Z,12.03
2017-09-24T00:03:57.753Z,12.17
2017-09-24T00:04:58.472Z,12.07
2017-09-24T00:05:59.198Z,12.15
2017-09-24T00:06:59.917Z,12.13
2017-09-24T00:08:00.640Z,12.03
2017-09-24T00:09:01.361Z,12.06
2017-09-24T00:10:02.081Z,12.06
2017-09-24T00:11:02.804Z,12.18
2017-09-24T00:12:03.545Z,12.17
2017-09-24T00:13:04.268Z,12.00
2017-09-24T00:14:05.010Z,12.10
2017-09-24T00:15:05.734Z,12.12
2017-09-24T00:16:06.452Z,12.18
2017-09-24T00:17:07.177Z,12.12
2017-09-24T00:18:07.897Z,12.06
2017-09-24T00:19:08.643Z,12.10
2017-09-24T00:20:09.366Z,12.06
2017-09-24T00:21:10.084Z,12.15
2017-09-24T00:22:10.807Z,12.12
2017-09-24T00:23:11.549Z,12.10
2017-09-24T00:24:12.272Z,12.06
2017-09-24T00:25:13.014Z,12.12
2017-09-24T00:26:13.739Z,12.18
2017-09-24T00:27:14.457Z,12.13
2017-09-24T00:28:15.204Z,12.21
2017-09-24T00:29:15.927Z,12.15
2017-09-24T00:30:16.651Z,12.15
2017-09-24T00:31:17.371Z,12.15
2017-09-24T00:32:18.092Z,12.18
2017-09-24T00:33:18.816Z,12.20
2017-09-24T00:34:19.561Z,12.18
2017-09-24T00:35:20.307Z,12.18
2017-09-24T00:36:21.049Z,12.15
2017-09-24T00:37:21.771Z,12.20
2017-09-24T00:38:22.494Z,12.18
2017-09-24T00:39:23.215Z,12.17
2017-09-24T00:40:23.940Z,12.17
2017-09-24T00:41:24.662Z,12.09
2017-09-24T00:42:25.383Z,12.10
2017-09-24T00:43:26.128Z,12.18
2017-09-24T00:44:26.850Z,12.18
2017-09-24T00:45:27.593Z,12.20
2017-09-24T00:46:28.314Z,12.22
2017-09-24T00:47:29.036Z,12.21
2017-09-24T00:48:29.755Z,12.20
2017-09-24T00:49:30.476Z,12.17
2017-09-24T00:50:31.200Z,12.17
2017-09-24T00:51:31.921Z,12.22
2017-09-24T00:52:32.645Z,12.18
2017-09-24T00:53:33.391Z,12.24
2017-09-24T00:54:34.134Z,12.21
2017-09-24T00:55:34.854Z,12.20
2017-09-24T00:56:35.577Z,12.25
2017-09-24T00:57:36.302Z,12.15
2017-09-24T00:58:37.020Z,12.25
2017-09-24T00:59:37.743Z,12.22
2017-09-24T01:00:38.465Z,12.20
2017-09-24T01:01:39.210Z,12.22
2017-09-24T01:02:39.931Z,12.35
2017-09-24T01:03:40.652Z,12.35
2017-09-24T01:04:41.396Z,12.24
2017-09-24T01:05:42.139Z,12.28
2017-09-24T01:06:42.861Z,12.28
2017-09-24T01:07:43.582Z,12.22
2017-09-24T01:08:44.306Z,12.22
2017-09-24T01:09:45.029Z,12.25
2017-09-24T01:10:45.751Z,12.35
2017-09-24T01:11:46.498Z,12.32
2017-09-24T01:12:47.220Z,12.37
2017-09-24T01:13:47.944Z,12.25
2017-09-24T01:14:48.687Z,12.42
2017-09-24T01:15:49.408Z,12.40
2017-09-24T01:16:50.133Z,12.37
2017-09-24T01:17:50.855Z,12.37
2017-09-24T01:18:51.578Z,12.37
2017-09-24T01:19:52.298Z,12.42
2017-09-24T01:20:53.021Z,12.47
2017-09-24T01:21:53.765Z,12.53
2017-09-24T01:22:54.489Z,12.42
2017-09-24T01:23:55.209Z,12.45
2017-09-24T01:24:55.931Z,12.37
2017-09-24T01:25:56.675Z,12.45
2017-09-24T01:26:57.398Z,12.43
2017-09-24T01:27:58.139Z,12.49
2017-09-24T01:28:58.842Z,12.47
2017-09-24T01:29:59.589Z,12.47
2017-09-24T01:31:00.310Z,12.50
2017-09-24T01:32:01.055Z,12.53
2017-09-24T01:33:01.775Z,12.50
2017-09-24T01:34:02.499Z,12.54
2017-09-24T01:35:03.269Z,12.58
2017-09-24T01:36:03.965Z,12.55
2017-09-24T01:37:04.686Z,12.61
2017-09-24T01:38:05.411Z,12.57
2017-09-24T01:39:06.158Z,12.57
2017-09-24T01:40:06.880Z,12.57
2017-09-24T01:41:07.605Z,12.55
2017-09-24T01:42:08.324Z,12.57
2017-09-24T01:43:09.046Z,12.55
2017-09-24T01:44:09.769Z,12.57
2017-09-24T01:45:10.513Z,12.55
2017-09-24T01:46:11.240Z,12.67
2017-09-24T01:47:11.979Z,12.57
2017-09-24T01:48:12.703Z,12.55
2017-09-24T01:49:13.450Z,12.60
2017-09-24T01:50:14.174Z,12.62
2017-09-24T01:51:14.897Z,12.57
2017-09-24T01:52:15.619Z,12.58
2017-09-24T01:53:16.342Z,12.50
2017-09-24T01:54:17.085Z,12.54
2017-09-24T01:55:17.807Z,12.55
2017-09-24T01:56:18.531Z,12.47
2017-09-24T01:57:19.251Z,12.49
2017-09-24T01:58:19.976Z,12.49
2017-09-24T01:59:20.720Z,12.50
2017-09-24T02:00:21.441Z,12.43
2017-09-24T02:01:22.165Z,12.46
2017-09-24T02:02:22.887Z,12.46
2017-09-24T02:03:23.635Z,12.49
2017-09-24T02:04:24.355Z,12.46
2017-09-24T02:05:25.080Z,12.43
2017-09-24T02:06:25.803Z,12.45
2017-09-24T02:07:26.523Z,12.36
2017-09-24T02:08:27.271Z,12.40
2017-09-24T02:09:27.990Z,12.36
2017-09-24T02:10:28.715Z,12.31
2017-09-24T02:11:29.436Z,12.35
2017-09-24T02:12:30.157Z,12.29
2017-09-24T02:13:30.880Z,12.25
2017-09-24T02:14:31.600Z,12.22
2017-09-24T02:15:32.322Z,12.36
2017-09-24T02:16:33.044Z,12.29
2017-09-24T02:17:33.764Z,12.31
2017-09-24T02:18:34.489Z,12.17
2017-09-24T02:19:35.208Z,12.15
2017-09-24T02:20:35.932Z,12.24
2017-09-24T02:21:36.651Z,12.18
2017-09-24T02:22:37.396Z,12.25
2017-09-24T02:23:38.124Z,12.24
2017-09-24T02:24:38.844Z,12.18
2017-09-24T02:25:39.567Z,12.28
2017-09-24T02:26:40.290Z,12.15
2017-09-24T02:27:41.009Z,12.18
2017-09-24T02:28:41.732Z,12.20
2017-09-24T02:29:42.479Z,12.21
2017-09-24T02:30:43.200Z,12.18
2017-09-24T02:31:43.924Z,12.13
2017-09-24T02:32:44.666Z,12.12
2017-09-24T02:33:45.388Z,12.12
2017-09-24T02:34:46.136Z,12.18
2017-09-24T02:35:46.862Z,12.13
2017-09-24T02:36:47.579Z,12.15
2017-09-24T02:37:48.297Z,11.99
2017-09-24T02:38:49.047Z,12.03
2017-09-24T02:39:49.786Z,12.00
2017-09-24T02:40:50.528Z,12.10
2017-09-24T02:41:51.252Z,12.02
2017-09-24T02:42:51.975Z,12.03
2017-09-24T02:43:52.698Z,12.06
2017-09-24T02:44:53.443Z,12.02
2017-09-24T02:45:54.168Z,12.04
2017-09-24T02:46:54.891Z,11.99
2017-09-24T02:47:55.613Z,11.97
2017-09-24T02:48:56.336Z,11.97
2017-09-24T02:49:57.059Z,11.97
2017-09-24T02:50:57.781Z,12.00
2017-09-24T02:51:58.502Z,12.00
2017-09-24T02:52:59.220Z,11.97
2017-09-24T02:53:59.963Z,12.00
2017-09-24T02:55:00.686Z,11.99
2017-09-24T02:56:01.406Z,12.02
2017-09-24T02:57:02.154Z,11.94
2017-09-24T02:58:02.893Z,12.00
2017-09-24T02:59:03.619Z,12.02
2017-09-24T03:00:04.342Z,11.99
2017-09-24T03:01:05.089Z,12.03
2017-09-24T03:02:05.831Z,12.03
2017-09-24T03:03:06.555Z,12.02
2017-09-24T03:04:07.275Z,12.02
2017-09-24T03:05:07.999Z,11.97
2017-09-24T03:06:08.724Z,11.97
2017-09-24T03:07:09.447Z,11.97
2017-09-24T03:08:10.168Z,12.00
2017-09-24T03:09:10.890Z,12.02
2017-09-24T03:10:11.613Z,12.02
2017-09-24T03:11:12.336Z,12.00
2017-09-24T03:12:13.055Z,12.06
2017-09-24T03:13:13.780Z,12.04
2017-09-24T03:14:14.499Z,12.15
2017-09-24T03:15:15.220Z,12.12
2017-09-24T03:16:15.941Z,12.13
2017-09-24T03:17:16.664Z,12.10
2017-09-24T03:18:17.388Z,12.17
2017-09-24T03:19:18.107Z,12.15
2017-09-24T03:20:18.854Z,12.15
2017-09-24T03:21:19.574Z,12.18
2017-09-24T03:22:20.296Z,12.17
2017-09-24T03:23:21.017Z,12.13
2017-09-24T03:24:21.742Z,12.15
2017-09-24T03:25:22.486Z,12.21
2017-09-24T03:26:23.207Z,12.17
2017-09-24T03:27:23.931Z,12.18
2017-09-24T03:28:24.653Z,12.21
2017-09-24T03:29:25.377Z,12.20
2017-09-24T03:30:26.121Z,12.24
2017-09-24T03:31:26.863Z,12.28
2017-09-24T03:32:27.607Z,12.21
2017-09-24T03:33:28.327Z,12.15
2017-09-24T03:34:29.049Z,12.22
2017-09-24T03:35:29.772Z,12.22
2017-09-24T03:36:30.497Z,12.15
2017-09-24T03:37:31.237Z,12.13
2017-09-24T03:38:31.960Z,12.36
2017-09-24T03:39:32.681Z,12.27
2017-09-24T03:40:33.424Z,12.28
2017-09-24T03:41:34.147Z,12.35
2017-09-24T03:42:34.872Z,12.28
2017-09-24T03:43:35.596Z,12.24
2017-09-24T03:44:36.343Z,12.25
2017-09-24T03:45:37.062Z,12.28
2017-09-24T03:46:37.784Z,12.27
2017-09-24T03:47:38.506Z,12.25
2017-09-24T03:48:39.229Z,12.27
2017-09-24T03:49:39.955Z,12.22
2017-09-24T03:50:40.674Z,12.28
2017-09-24T03:51:41.398Z,12.29
2017-09-24T03:52:42.120Z,12.25
2017-09-24T03:53:42.843Z,12.27
2017-09-24T03:54:43.563Z,12.27
2017-09-24T03:55:44.287Z,12.25
2017-09-24T03:56:45.009Z,12.36
2017-09-24T03:57:45.730Z,12.25
2017-09-24T03:58:46.484Z,12.27
2017-09-24T03:59:47.173Z,12.29
2017-09-24T04:00:47.895Z,12.29
2017-09-24T04:01:48.618Z,12.25
2017-09-24T04:02:49.338Z,12.28
2017-09-24T04:03:50.063Z,12.28
2017-09-24T04:04:50.784Z,12.25
2017-09-24T04:05:51.509Z,12.25
2017-09-24T04:06:52.230Z,12.32
2017-09-24T04:07:52.949Z,12.22
2017-09-24T04:08:53.672Z,12.27
2017-09-24T04:09:54.421Z,12.31
2017-09-24T04:10:55.139Z,12.18
2017-09-24T04:11:55.864Z,12.35
2017-09-24T04:12:56.585Z,12.25
2017-09-24T04:13:57.307Z,12.21
2017-09-24T04:14:58.029Z,12.25
2017-09-24T04:15:58.753Z,12.29
2017-09-24T04:16:59.497Z,12.27
2017-09-24T04:18:00.218Z,12.29
2017-09-24T04:19:00.943Z,12.25
2017-09-24T04:20:01.665Z,12.28
2017-09-24T04:21:02.408Z,12.17
2017-09-24T04:22:03.153Z,12.13
2017-09-24T04:23:03.897Z,12.25
2017-09-24T04:24:04.619Z,12.21
2017-09-24T04:25:05.338Z,12.28
2017-09-24T04:26:06.064Z,12.13
2017-09-24T04:27:06.784Z,12.24
2017-09-24T04:28:07.508Z,12.13
2017-09-24T04:29:08.251Z,12.27
2017-09-24T04:30:08.973Z,12.32
2017-09-24T04:31:09.695Z,12.22
2017-09-24T04:32:10.418Z,12.24
2017-09-24T04:33:11.138Z,12.17
2017-09-24T04:34:11.860Z,12.21
2017-09-24T04:35:12.583Z,12.31
2017-09-24T04:36:13.303Z,12.20
2017-09-24T04:37:14.049Z,12.24
2017-09-24T04:38:14.773Z,12.29
2017-09-24T04:39:15.492Z,12.17
2017-09-24T04:40:16.216Z,12.35
2017-09-24T04:41:16.936Z,12.24
2017-09-24T04:42:17.660Z,12.15
2017-09-24T04:43:18.381Z,12.25
2017-09-24T04:44:19.102Z,12.27
2017-09-24T04:45:19.826Z,12.21
2017-09-24T04:46:20.547Z,12.24
2017-09-24T04:47:21.272Z,12.20
2017-09-24T04:48:21.993Z,12.21
2017-09-24T04:49:22.712Z,12.25
2017-09-24T04:50:23.435Z,12.28
2017-09-24T04:51:24.159Z,12.25
2017-09-24T04:52:24.877Z,12.27
2017-09-24T04:53:25.621Z,12.29
2017-09-24T04:54:26.365Z,12.31
2017-09-24T04:55:27.087Z,12.36
2017-09-24T04:56:27.812Z,12.28
2017-09-24T04:57:28.532Z,12.28
2017-09-24T04:58:29.254Z,12.27
2017-09-24T04:59:29.976Z,12.29
2017-09-24T05:00:30.696Z,12.24
2017-09-24T05:01:31.420Z,12.25
2017-09-24T05:02:32.165Z,12.29
2017-09-24T05:03:32.911Z,12.27
2017-09-24T05:04:33.632Z,12.29
2017-09-24T05:05:34.360Z,12.24
2017-09-24T05:06:35.080Z,12.25
2017-09-24T05:07:35.803Z,12.24
2017-09-24T05:08:36.527Z,12.27
2017-09-24T05:09:37.246Z,12.27
2017-09-24T05:10:37.976Z,12.32
2017-09-24T05:11:38.694Z,12.24
2017-09-24T05:12:39.440Z,12.24
2017-09-24T05:13:40.166Z,12.22
2017-09-24T05:14:40.902Z,12.25
2017-09-24T05:15:41.627Z,12.22
2017-09-24T05:16:42.349Z,12.20
2017-09-24T05:17:43.072Z,12.22
2017-09-24T05:18:43.796Z,12.24
2017-09-24T05:19:44.518Z,12.25
2017-09-24T05:20:45.380Z,12.24
2017-09-24T05:21:46.106Z,12.22
2017-09-24T05:22:46.829Z,12.24
2017-09-24T05:23:47.553Z,12.28
2017-09-24T05:24:48.277Z,12.27
2017-09-24T05:25:49.025Z,12.28
2017-09-24T05:26:49.746Z,12.27
2017-09-24T05:27:50.469Z,12.25
2017-09-24T05:28:51.193Z,12.27
2017-09-24T05:29:51.939Z,12.22
2017-09-24T05:30:52.667Z,12.22
2017-09-24T05:31:53.389Z,12.31
2017-09-24T05:32:54.116Z,12.28
2017-09-24T05:33:54.863Z,12.24
2017-09-24T05:34:55.587Z,12.27
2017-09-24T05:35:56.332Z,12.29
2017-09-24T05:36:57.055Z,12.25
2017-09-24T05:37:57.779Z,12.31
2017-09-24T05:38:58.528Z,12.27
2017-09-24T05:39:59.276Z,12.27
2017-09-24T05:41:00.000Z,12.24
2017-09-24T05:42:00.725Z,12.22
2017-09-24T05:43:01.455Z,12.27
2017-09-24T05:44:02.209Z,12.21
2017-09-24T05:45:02.908Z,12.21
2017-09-24T05:46:03.633Z,12.21
2017-09-24T05:47:04.362Z,12.17
2017-09-24T05:48:05.083Z,12.25
2017-09-24T05:49:05.809Z,12.27
2017-09-24T05:50:06.538Z,12.27
2017-09-24T05:51:07.260Z,12.25
2017-09-24T05:52:07.993Z,12.27
2017-09-24T05:53:08.718Z,12.28
2017-09-24T05:54:09.463Z,12.22
2017-09-24T05:55:10.209Z,12.29
2017-09-24T05:56:10.933Z,12.27
2017-09-24T05:57:11.658Z,12.35
2017-09-24T05:58:12.408Z,12.25
2017-09-24T05:59:13.156Z,12.27
2017-09-24T06:00:13.904Z,12.24
2017-09-24T06:01:14.626Z,12.25
2017-09-24T06:02:15.352Z,12.25
2017-09-24T06:03:16.100Z,12.25
2017-09-24T06:04:16.833Z,12.35
2017-09-24T06:05:17.574Z,12.24
2017-09-24T06:06:18.301Z,12.25
2017-09-24T06:07:19.026Z,12.24
2017-09-24T06:08:19.750Z,12.25
2017-09-24T06:09:20.476Z,12.21
2017-09-24T06:10:21.201Z,12.18
2017-09-24T06:11:21.926Z,12.27
2017-09-24T06:12:22.652Z,12.25
2017-09-24T06:13:23.405Z,12.28
2017-09-24T06:14:24.134Z,12.21
2017-09-24T06:15:24.859Z,12.28
2017-09-24T06:16:25.584Z,12.35
2017-09-24T06:17:26.337Z,12.31
2017-09-24T06:18:27.063Z,12.36
2017-09-24T06:19:27.788Z,12.37
2017-09-24T06:20:28.516Z,12.39
2017-09-24T06:21:29.242Z,12.49
2017-09-24T06:22:30.011Z,12.50
2017-09-24T06:23:30.811Z,12.53
2017-09-24T06:24:31.534Z,12.45
2017-09-24T06:25:32.265Z,12.47
2017-09-24T06:26:32.993Z,12.49
2017-09-24T06:27:33.717Z,12.50
2017-09-24T06:28:34.443Z,12.49
2017-09-24T06:29:35.194Z,12.60
2017-09-24T06:30:35.924Z,12.57
2017-09-24T06:31:36.682Z,12.55
2017-09-24T06:32:37.424Z,12.62
2017-09-24T06:33:38.156Z,12.61
2017-09-24T06:34:38.909Z,12.55
2017-09-24T06:35:39.657Z,12.54
2017-09-24T06:36:40.406Z,12.61
2017-09-24T06:37:41.153Z,12.54
2017-09-24T06:38:41.905Z,12.64
2017-09-24T06:39:42.654Z,12.65
2017-09-24T06:40:43.380Z,12.68
2017-09-24T06:41:44.128Z,12.61
2017-09-24T06:42:44.856Z,12.70
2017-09-24T06:43:45.590Z,12.72
2017-09-24T06:44:46.311Z,12.67
2017-09-24T06:45:47.038Z,12.78
2017-09-24T06:46:47.763Z,12.73
2017-09-24T06:47:48.490Z,12.75
2017-09-24T06:48:49.218Z,12.78
2017-09-24T06:49:49.945Z,12.79
2017-09-24T06:50:50.672Z,12.75
2017-09-24T06:51:51.401Z,12.76
2017-09-24T06:52:52.150Z,12.78
2017-09-24T06:53:52.878Z,12.75
2017-09-24T06:54:53.605Z,12.72
2017-09-24T06:55:54.330Z,12.76
2017-09-24T06:56:55.060Z,12.80
2017-09-24T06:57:55.806Z,12.83
2017-09-24T06:58:56.535Z,12.87
2017-09-24T06:59:57.262Z,12.76
2017-09-24T07:00:58.016Z,12.85
2017-09-24T07:01:58.741Z,12.87
2017-09-24T07:02:59.468Z,12.83
2017-09-24T07:04:00.196Z,12.93
2017-09-24T07:05:00.922Z,12.85
2017-09-24T07:06:01.649Z,12.94
2017-09-24T07:07:02.378Z,12.98
2017-09-24T07:08:03.103Z,12.86
2017-09-24T07:09:03.830Z,12.98
2017-09-24T07:10:04.560Z,13.01
2017-09-24T07:11:05.289Z,13.03
2017-09-24T07:12:06.016Z,13.01
2017-09-24T07:13:06.742Z,13.00
2017-09-24T07:14:07.471Z,13.16
2017-09-24T07:15:08.201Z,13.11
2017-09-24T07:16:08.952Z,13.12
2017-09-24T07:17:09.680Z,13.19
2017-09-24T07:18:10.406Z,13.23
2017-09-24T07:19:11.134Z,13.25
2017-09-24T07:20:11.889Z,13.23
2017-09-24T07:21:12.617Z,13.41
2017-09-24T07:22:13.346Z,13.39
2017-09-24T07:23:14.074Z,13.42
2017-09-24T07:24:14.802Z,13.42
2017-09-24T07:25:15.533Z,13.47
2017-09-24T07:26:16.259Z,13.49
2017-09-24T07:27:16.991Z,13.65
2017-09-24T07:28:17.742Z,13.60
2017-09-24T07:29:18.469Z,13.68
2017-09-24T07:30:19.201Z,13.72
2017-09-24T07:31:19.930Z,13.81
2017-09-24T07:32:20.659Z,13.89
2017-09-24T07:33:21.390Z,13.87
2017-09-24T07:34:22.120Z,13.97
2017-09-24T07:35:22.848Z,14.00
2017-09-24T07:36:23.576Z,14.03
2017-09-24T07:37:24.305Z,14.12
2017-09-24T07:38:25.033Z,14.10
2017-09-24T07:39:25.785Z,14.17
2017-09-24T07:40:26.535Z,14.22
2017-09-24T07:41:27.261Z,14.25
2017-09-24T07:42:27.996Z,14.28
2017-09-24T07:43:28.725Z,14.29
2017-09-24T07:44:29.454Z,14.25
2017-09-24T07:45:30.184Z,14.36
2017-09-24T07:46:30.916Z,14.43
2017-09-24T07:47:31.664Z,14.36
2017-09-24T07:48:32.394Z,14.51
2017-09-24T07:49:33.128Z,14.51
2017-09-24T07:50:33.884Z,14.53
2017-09-24T07:51:34.609Z,14.63
2017-09-24T07:52:35.340Z,14.65
2017-09-24T07:53:36.069Z,14.72
2017-09-24T07:54:36.796Z,14.77
2017-09-24T07:55:37.529Z,14.72
2017-09-24T07:56:38.260Z,14.82
2017-09-24T07:57:38.992Z,14.86
2017-09-24T07:58:39.744Z,14.78
2017-09-24T07:59:40.496Z,14.81
2017-09-24T08:00:41.225Z,14.85
2017-09-24T08:01:41.954Z,14.84
2017-09-24T08:02:42.684Z,14.88
2017-09-24T08:03:43.416Z,14.86
2017-09-24T08:04:44.144Z,14.84
2017-09-24T08:05:44.874Z,14.97
2017-09-24T08:06:45.603Z,14.97
2017-09-24T08:07:46.336Z,15.07
2017-09-24T08:08:47.068Z,15.03
2017-09-24T08:09:47.798Z,15.14
2017-09-24T08:10:48.527Z,15.11
2017-09-24T08:11:49.255Z,15.22
2017-09-24T08:12:49.985Z,15.29
2017-09-24T08:13:50.717Z,15.29
2017-09-24T08:14:51.448Z,15.36
2017-09-24T08:15:52.178Z,15.36
2017-09-24T08:16:52.931Z,15.49
2017-09-24T08:17:53.659Z,15.47
2017-09-24T08:18:54.393Z,15.49
2017-09-24T08:19:55.150Z,15.51
2017-09-24T08:20:55.881Z,15.54
2017-09-24T08:21:56.610Z,15.51
2017-09-24T08:22:57.341Z,15.52
2017-09-24T08:23:58.072Z,15.61
2017-09-24T08:24:58.801Z,15.55
2017-09-24T08:25:59.533Z,15.61
2017-09-24T08:27:00.262Z,15.62
2017-09-24T08:28:00.994Z,15.68
2017-09-24T08:29:01.726Z,15.72
2017-09-24T08:30:02.456Z,15.77
2017-09-24T08:31:03.188Z,15.76
2017-09-24T08:32:03.921Z,15.88
2017-09-24T08:33:04.649Z,15.84
2017-09-24T08:34:05.383Z,15.88
2017-09-24T08:35:06.110Z,16.04
2017-09-24T08:36:06.843Z,16.09
2017-09-24T08:37:07.575Z,16.09
2017-09-24T08:38:08.307Z,16.15
2017-09-24T08:39:09.043Z,16.35
2017-09-24T08:40:09.776Z,16.31
2017-09-24T08:41:10.506Z,16.32
2017-09-24T08:42:11.240Z,16.32
2017-09-24T08:43:11.973Z,16.38
2017-09-24T08:44:12.706Z,16.50
2017-09-24T08:45:13.439Z,16.58
2017-09-24T08:46:14.194Z,16.69
2017-09-24T08:47:14.934Z,16.75
2017-09-24T08:48:15.688Z,16.86
2017-09-24T08:49:16.422Z,16.78
2017-09-24T08:50:17.152Z,16.83
2017-09-24T08:51:17.886Z,16.93
2017-09-24T08:52:18.618Z,17.02
2017-09-24T08:53:19.350Z,16.96
2017-09-24T08:54:20.089Z,17.08
2017-09-24T08:55:20.841Z,17.22
2017-09-24T08:56:21.573Z,17.14
2017-09-24T08:57:22.333Z,17.34
2017-09-24T08:58:23.087Z,17.20
2017-09-24T08:59:23.822Z,17.23
2017-09-24T09:00:24.578Z,17.27
2017-09-24T09:01:25.309Z,17.26
2017-09-24T09:02:26.045Z,17.26
2017-09-24T09:03:26.775Z,17.20
2017-09-24T09:04:27.509Z,17.36
2017-09-24T09:05:28.270Z,17.33
2017-09-24T09:06:29.001Z,17.45
2017-09-24T09:07:29.732Z,17.52
2017-09-24T09:08:30.487Z,17.76
2017-09-24T09:09:31.242Z,17.87
2017-09-24T09:10:31.998Z,18.00
2017-09-24T09:11:32.735Z,18.19
2017-09-24T09:12:33.504Z,18.31
2017-09-24T09:13:34.200Z,18.43
2017-09-24T09:14:34.934Z,18.52
2017-09-24T09:15:35.667Z,18.63
2017-09-24T09:16:36.404Z,18.56
2017-09-24T09:17:37.135Z,18.62
2017-09-24T09:18:37.892Z,18.56
2017-09-24T09:19:38.624Z,18.80
2017-09-24T09:20:39.358Z,18.86
2017-09-24T09:21:40.093Z,19.08
2017-09-24T09:22:40.829Z,19.15
2017-09-24T09:23:41.564Z,19.16
2017-09-24T09:24:42.331Z,19.24
2017-09-24T09:25:43.087Z,19.39
2017-09-24T09:26:43.823Z,19.64
2017-09-24T09:27:44.558Z,19.73
2017-09-24T09:28:45.294Z,19.88
2017-09-24T09:29:46.034Z,19.95
2017-09-24T09:30:46.767Z,19.91
2017-09-24T09:31:47.505Z,19.96
2017-09-24T09:32:48.239Z,19.91
2017-09-24T09:33:48.999Z,19.91
2017-09-24T09:34:49.733Z,19.91
2017-09-24T09:35:50.512Z,19.89
2017-09-24T09:36:51.249Z,19.99
2017-09-24T09:37:51.987Z,20.11
2017-09-24T09:38:52.721Z,20.24
2017-09-24T09:39:53.456Z,20.18
2017-09-24T09:40:54.192Z,20.16
2017-09-24T09:41:54.928Z,20.28
2017-09-24T09:42:55.685Z,20.24
2017-09-24T09:43:56.426Z,20.10
2017-09-24T09:44:57.181Z,19.99
2017-09-24T09:45:57.916Z,20.13
2017-09-24T09:46:58.654Z,20.22
2017-09-24T09:47:59.413Z,20.26
2017-09-24T09:49:00.149Z,20.31
2017-09-24T09:50:00.885Z,20.37
2017-09-24T09:51:01.624Z,20.43
2017-09-24T09:52:02.361Z,20.58
2017-09-24T09:53:03.097Z,20.77
2017-09-24T09:54:03.834Z,20.84
2017-09-24T09:55:04.596Z,21.22
2017-09-24T09:56:05.346Z,21.55
2017-09-24T09:57:06.101Z,21.79
2017-09-24T09:58:06.843Z,22.20
2017-09-24T09:59:07.585Z,22.85
2017-09-24T10:00:08.332Z,23.48
2017-09-24T10:01:09.075Z,23.81
2017-09-24T10:02:09.818Z,24.35
2017-09-24T10:03:10.566Z,24.98
2017-09-24T10:04:11.305Z,24.76
2017-09-24T10:05:12.049Z,25.38
2017-09-24T10:06:12.793Z,25.54
2017-09-24T10:07:13.558Z,25.80
2017-09-24T10:08:14.302Z,26.03
2017-09-24T10:09:15.044Z,26.09
2017-09-24T10:10:15.808Z,26.19
2017-09-24T10:11:16.550Z,26.85
2017-09-24T10:12:17.297Z,26.59
2017-09-24T10:13:18.040Z,26.75
2017-09-24T10:14:18.785Z,27.11
2017-09-24T10:15:19.531Z,27.14
2017-09-24T10:16:20.298Z,27.63
2017-09-24T10:17:21.064Z,27.75
2017-09-24T10:18:21.809Z,27.98
2017-09-24T10:19:22.551Z,27.29
2017-09-24T10:20:23.298Z,27.63
2017-09-24T10:21:24.045Z,27.48
2017-09-24T10:22:24.793Z,26.93
2017-09-24T10:23:25.545Z,27.45
2017-09-24T10:24:26.308Z,27.82
2017-09-24T10:25:27.055Z,28.20
2017-09-24T10:26:27.824Z,28.52
2017-09-24T10:27:28.572Z,28.78
2017-09-24T10:28:29.341Z,29.16
2017-09-24T10:29:30.085Z,29.32
2017-09-24T10:30:30.853Z,29.42
2017-09-24T10:31:31.599Z,29.79
2017-09-24T10:32:32.347Z,30.06
2017-09-24T10:33:33.093Z,30.18
2017-09-24T10:34:33.842Z,30.48
2017-09-24T10:35:34.590Z,30.69
2017-09-24T10:36:35.336Z,30.84
2017-09-24T10:37:36.089Z,30.59
2017-09-24T10:38:36.835Z,30.77
2017-09-24T10:39:37.611Z,30.73
2017-09-24T10:40:38.358Z,30.91
2017-09-24T10:41:39.112Z,30.96
2017-09-24T10:42:39.866Z,31.05
2017-09-24T10:43:40.619Z,31.28
2017-09-24T10:44:41.369Z,31.47
2017-09-24T10:45:42.126Z,31.15
2017-09-24T10:46:42.883Z,30.57
2017-09-24T10:47:43.658Z,28.93
2017-09-24T10:48:44.413Z,29.42
2017-09-24T10:49:45.171Z,29.82
2017-09-24T10:50:45.926Z,30.02
2017-09-24T10:51:46.704Z,30.35
2017-09-24T10:52:47.481Z,30.24
2017-09-24T10:53:48.236Z,30.48
2017-09-24T10:54:48.995Z,30.65
2017-09-24T10:55:49.753Z,31.07
2017-09-24T10:56:50.511Z,31.28
2017-09-24T10:57:51.287Z,31.20
2017-09-24T10:58:52.044Z,30.97
2017-09-24T10:59:52.800Z,31.14
2017-09-24T11:00:53.556Z,31.14
2017-09-24T11:01:54.311Z,31.14
2017-09-24T11:02:55.092Z,31.15
2017-09-24T11:03:55.870Z,31.22
2017-09-24T11:04:56.628Z,31.07
2017-09-24T11:05:57.384Z,31.33
2017-09-24T11:06:58.162Z,31.12
2017-09-24T11:07:58.915Z,30.46
2017-09-24T11:08:59.667Z,30.65
2017-09-24T11:10:00.423Z,30.30
2017-09-24T11:11:01.175Z,29.88
2017-09-24T11:12:01.931Z,29.26
2017-09-24T11:13:02.687Z,29.35
2017-09-24T11:14:03.434Z,29.72
2017-09-24T11:15:04.208Z,29.71
2017-09-24T11:16:04.963Z,29.69
2017-09-24T11:17:05.720Z,29.94
2017-09-24T11:18:06.473Z,30.54
2017-09-24T11:19:07.230Z,30.57
2017-09-24T11:20:07.984Z,30.40
2017-09-24T11:21:08.739Z,30.51
2017-09-24T11:22:09.498Z,30.90
2017-09-24T11:23:10.251Z,31.09
2017-09-24T11:24:11.002Z,31.22
2017-09-24T11:25:11.758Z,31.42
2017-09-24T11:26:12.516Z,31.70
2017-09-24T11:27:13.265Z,31.51
2017-09-24T11:28:14.024Z,31.69
2017-09-24T11:29:14.781Z,31.96
2017-09-24T11:30:15.539Z,31.94
2017-09-24T11:31:16.312Z,31.93
2017-09-24T11:32:17.066Z,32.01
2017-09-24T11:33:17.823Z,32.22
2017-09-24T11:34:18.593Z,31.92
2017-09-24T11:35:19.353Z,31.56
2017-09-24T11:36:20.104Z,31.20
2017-09-24T11:37:20.858Z,30.94
2017-09-24T11:38:21.635Z,31.03
2017-09-24T11:39:22.392Z,30.99
2017-09-24T11:40:23.148Z,31.20
2017-09-24T11:41:23.899Z,31.10
2017-09-24T11:42:24.650Z,31.59
2017-09-24T11:43:25.406Z,31.85
2017-09-24T11:44:26.158Z,32.14
2017-09-24T11:45:26.920Z,32.14
2017-09-24T11:46:27.693Z,31.74
2017-09-24T11:47:28.473Z,31.61
2017-09-24T11:48:29.222Z,31.58
2017-09-24T11:49:29.998Z,31.77
2017-09-24T11:50:30.751Z,32.09
2017-09-24T11:51:31.515Z,32.49
2017-09-24T11:52:32.271Z,32.60
2017-09-24T11:53:33.043Z,32.48
2017-09-24T11:54:33.794Z,32.83
2017-09-24T11:55:34.550Z,32.83
2017-09-24T11:56:35.305Z,33.19
2017-09-24T11:57:36.059Z,33.08
2017-09-24T11:58:36.813Z,33.40
2017-09-24T11:59:37.566Z,33.28
2017-09-24T12:00:38.320Z,33.17
2017-09-24T12:01:39.096Z,33.22
2017-09-24T12:02:39.848Z,33.30
2017-09-24T12:03:40.624Z,33.12
2017-09-24T12:04:41.378Z,33.20
2017-09-24T12:05:42.132Z,33.20
2017-09-24T12:06:42.975Z,33.08
2017-09-24T12:07:43.729Z,32.45
2017-09-24T12:08:44.483Z,32.43
2017-09-24T12:09:45.237Z,32.68
2017-09-24T12:10:45.989Z,32.82
2017-09-24T12:11:46.742Z,32.77
2017-09-24T12:12:47.498Z,33.15
2017-09-24T12:13:48.251Z,32.86
2017-09-24T12:14:49.005Z,33.08
2017-09-24T12:15:49.780Z,33.39
2017-09-24T12:16:50.532Z,33.37
2017-09-24T12:17:51.284Z,33.09
2017-09-24T12:18:52.036Z,32.68
2017-09-24T12:19:52.790Z,32.73
2017-09-24T12:20:53.539Z,32.74
2017-09-24T12:21:54.291Z,32.51
2017-09-24T12:22:55.042Z,32.56
2017-09-24T12:23:55.796Z,32.59
2017-09-24T12:24:56.549Z,32.58
2017-09-24T12:25:57.302Z,32.70
2017-09-24T12:26:58.052Z,32.85
2017-09-24T12:27:58.810Z,33.22
2017-09-24T12:28:59.563Z,33.23
2017-09-24T12:30:00.315Z,33.27
2017-09-24T12:31:01.064Z,33.15
2017-09-24T12:32:01.835Z,33.34
2017-09-24T12:33:02.608Z,33.50
2017-09-24T12:34:03.361Z,33.57
2017-09-24T12:35:04.112Z,33.58
2017-09-24T12:36:04.865Z,33.67
2017-09-24T12:37:05.614Z,33.71
2017-09-24T12:38:06.389Z,33.79
2017-09-24T12:39:07.142Z,33.65
2017-09-24T12:40:07.919Z,33.65
2017-09-24T12:41:08.668Z,33.69
2017-09-24T12:42:09.423Z,33.73
2017-09-24T12:43:10.173Z,33.86
2017-09-24T12:44:10.942Z,33.68
2017-09-24T12:45:11.702Z,33.74
2017-09-24T12:46:12.452Z,33.47
2017-09-24T12:47:13.206Z,33.80
2017-09-24T12:48:13.960Z,33.87
2017-09-24T12:49:14.711Z,34.03
2017-09-24T12:50:15.467Z,33.69
2017-09-24T12:51:16.216Z,33.77
2017-09-24T12:52:16.965Z,33.62
2017-09-24T12:53:17.713Z,33.19
2017-09-24T12:54:18.465Z,32.64
2017-09-24T12:55:19.223Z,32.51
2017-09-24T12:56:19.961Z,32.52
2017-09-24T12:57:20.712Z,32.74
2017-09-24T12:58:21.479Z,33.00
2017-09-24T12:59:22.250Z,33.07
2017-09-24T13:00:23.006Z,33.57
2017-09-24T13:01:23.754Z,33.67
2017-09-24T13:02:24.507Z,33.62